Wind From: 11-12-2017 12:03 Until: 12-12-2017 06:00 warning for: Wind Level: Orange info button

Power and phone distribution networks may be disrupted for relatively long periods., Roofs and chimneys can be damaged. , Tree branches may break. , Vehicles can be deported. , Traffic may be disrupted, particularly on secondary roads in forest areas. Limit your trips. , Limit your speed in highway driving, especially if you drive a vehicle or hitch sensitive to wind. , Do not go for walks in forests or along the coast., In town, be vigilant against possible falling objects., Do not work on roofs and do not touch any electrical line fallen on the ground., Store or secure sensitive objects to wind or likely to be damaged., Always install power generators outside buildings. 


Meteo18 Weather Cam more information Meteo18 Weather Cam


Thunder radar more information blitzortung!


Rain radar more information rain snow radar


Visit our other weather sites:

Template documentation
and downloads

And another site



Weather Underground History page Text

Daily Summary for March 13, 2017 Units:  Metric    English   Both
« Previous Day
Next Day »
Daily Weekly Monthly Yearly Custom
  High: Low: Average:
Temperature: 15.4 °C 6.8 °C 10.8 °C
Dew Point: 8.9 °C 4.8 °C 6.8 °C
Humidity: 93 % 51 % 78 %
Wind Speed: 20.9 km/h 0.0 km/h 8.1 km/h
Wind Gust: 32.2 km/h - -
Wind:- - SW
Pressure: 1033.1 hPa 1017.8 hPa -
Precipitation: 0.0 mm    
Historical Graphs
 
 
Tabular Data for March 13, 2017
Time Temperature Dew Point Pressure Wind Wind Speed Wind Gust Humidity Rainfall Rate (Hourly)
00:02 10.1 °C 8.9 °C 1017.8 hPa West 6.4 km/h 17.7 km/h 92 % 0.0 mm
00:07 10.1 °C 8.7 °C 1017.8 hPa WNW 14.5 km/h 17.7 km/h 91 % 0.0 mm
00:12 10.1 °C 8.7 °C 1017.8 hPa WNW 3.2 km/h 17.7 km/h 91 % 0.0 mm
00:17 10.0 °C 8.8 °C 1017.8 hPa WNW 3.2 km/h 17.7 km/h 92 % 0.0 mm
00:22 9.9 °C 8.5 °C 1017.8 hPa NW 4.8 km/h 16.1 km/h 91 % 0.0 mm
00:32 9.8 °C 8.6 °C 1018.2 hPa NW 4.8 km/h 16.1 km/h 92 % 0.0 mm
00:37 9.7 °C 8.5 °C 1018.2 hPa WNW 11.3 km/h 16.1 km/h 92 % 0.0 mm
00:42 9.7 °C 8.5 °C 1018.2 hPa NW 3.2 km/h 12.9 km/h 92 % 0.0 mm
00:52 9.6 °C 8.4 °C 1018.5 hPa NW 8.0 km/h 17.7 km/h 92 % 0.0 mm
00:57 9.6 °C 8.4 °C 1018.5 hPa NNW 6.4 km/h 17.7 km/h 92 % 0.0 mm
01:02 9.6 °C 8.4 °C 1018.5 hPa NW 6.4 km/h 19.3 km/h 92 % 0.0 mm
01:12 9.5 °C 8.3 °C 1018.5 hPa NW 4.8 km/h 19.3 km/h 92 % 0.0 mm
01:17 9.4 °C 8.2 °C 1018.5 hPa WNW 8.0 km/h 20.9 km/h 92 % 0.0 mm
01:22 9.4 °C 8.2 °C 1018.8 hPa NNW 9.7 km/h 20.9 km/h 92 % 0.0 mm
01:32 9.3 °C 8.1 °C 1018.8 hPa NW 9.7 km/h 17.7 km/h 92 % 0.0 mm
01:37 9.4 °C 8.2 °C 1018.8 hPa NNW 11.3 km/h 17.7 km/h 92 % 0.0 mm
01:42 9.4 °C 8.2 °C 1019.2 hPa NNW 8.0 km/h 19.3 km/h 92 % 0.0 mm
01:47 9.4 °C 8.0 °C 1019.2 hPa NNW 9.7 km/h 19.3 km/h 91 % 0.0 mm
01:52 9.4 °C 8.0 °C 1019.2 hPa North 4.8 km/h 20.9 km/h 91 % 0.0 mm
01:57 9.4 °C 8.0 °C 1019.2 hPa NW 11.3 km/h 20.9 km/h 91 % 0.0 mm
02:02 9.4 °C 8.0 °C 1019.2 hPa NW 11.3 km/h 20.9 km/h 91 % 0.0 mm
02:07 9.4 °C 8.0 °C 1019.2 hPa North 9.7 km/h 20.9 km/h 91 % 0.0 mm
02:12 9.4 °C 8.0 °C 1019.2 hPa NNE 16.1 km/h 20.9 km/h 91 % 0.0 mm
02:17 9.3 °C 7.9 °C 1019.5 hPa WNW 14.5 km/h 20.9 km/h 91 % 0.0 mm
02:22 9.3 °C 7.9 °C 1019.5 hPa NW 17.7 km/h 22.5 km/h 91 % 0.0 mm
02:32 9.3 °C 7.9 °C 1019.5 hPa North 11.3 km/h 25.7 km/h 91 % 0.0 mm
02:37 9.3 °C 7.9 °C 1019.5 hPa NW 6.4 km/h 25.7 km/h 91 % 0.0 mm
02:42 9.3 °C 7.9 °C 1019.5 hPa NNW 16.1 km/h 24.1 km/h 91 % 0.0 mm
02:52 9.2 °C 7.8 °C 1019.9 hPa NNW 14.5 km/h 24.1 km/h 91 % 0.0 mm
03:02 9.2 °C 7.8 °C 1019.9 hPa NNW 8.0 km/h 20.9 km/h 91 % 0.0 mm
03:07 9.1 °C 7.7 °C 1020.2 hPa NNW 16.1 km/h 20.9 km/h 91 % 0.0 mm
03:12 9.1 °C 7.7 °C 1019.9 hPa North 16.1 km/h 27.4 km/h 91 % 0.0 mm
03:17 9.1 °C 7.7 °C 1020.2 hPa NNE 9.7 km/h 27.4 km/h 91 % 0.0 mm
03:22 9.0 °C 7.6 °C 1020.2 hPa North 11.3 km/h 27.4 km/h 91 % 0.0 mm
03:32 8.9 °C 7.5 °C 1020.5 hPa North 11.3 km/h 24.1 km/h 91 % 0.0 mm
03:37 8.8 °C 7.4 °C 1020.5 hPa North 12.9 km/h 24.1 km/h 91 % 0.0 mm
03:42 8.7 °C 7.2 °C 1020.5 hPa NNW 12.9 km/h 27.4 km/h 90 % 0.0 mm
03:47 8.6 °C 7.1 °C 1020.5 hPa NNE 11.3 km/h 27.4 km/h 90 % 0.0 mm
03:52 8.4 °C 6.9 °C 1020.5 hPa NNW 8.0 km/h 27.4 km/h 90 % 0.0 mm
03:57 8.3 °C 6.8 °C 1020.5 hPa North 16.1 km/h 27.4 km/h 90 % 0.0 mm
04:02 8.3 °C 6.9 °C 1020.5 hPa NNW 16.1 km/h 27.4 km/h 91 % 0.0 mm
04:12 8.3 °C 6.9 °C 1020.5 hPa NW 8.0 km/h 24.1 km/h 91 % 0.0 mm
04:17 8.3 °C 6.9 °C 1020.5 hPa NNW 11.3 km/h 25.7 km/h 91 % 0.0 mm
04:22 8.2 °C 6.8 °C 1020.5 hPa NNW 14.5 km/h 25.7 km/h 91 % 0.0 mm
04:32 8.2 °C 6.8 °C 1020.9 hPa North 11.3 km/h 25.7 km/h 91 % 0.0 mm
04:42 8.1 °C 6.9 °C 1020.9 hPa NNE 19.3 km/h 22.5 km/h 92 % 0.0 mm
04:47 8.1 °C 6.9 °C 1021.2 hPa NNE 19.3 km/h 27.4 km/h 92 % 0.0 mm
04:52 8.1 °C 6.9 °C 1021.2 hPa North 20.9 km/h 27.4 km/h 92 % 0.0 mm
04:57 8.0 °C 6.8 °C 1021.2 hPa NE 19.3 km/h 27.4 km/h 92 % 0.0 mm
05:02 8.0 °C 6.8 °C 1021.2 hPa NNE 14.5 km/h 27.4 km/h 92 % 0.0 mm
05:12 8.0 °C 6.8 °C 1021.6 hPa NNW 19.3 km/h 22.5 km/h 92 % 0.0 mm
05:17 8.0 °C 6.8 °C 1021.6 hPa North 17.7 km/h 25.7 km/h 92 % 0.0 mm
05:22 8.0 °C 6.8 °C 1021.6 hPa NNW 4.8 km/h 25.7 km/h 92 % 0.0 mm
05:32 8.0 °C 6.8 °C 1021.6 hPa NW 8.0 km/h 22.5 km/h 92 % 0.0 mm
05:42 8.0 °C 6.8 °C 1021.6 hPa North 11.3 km/h 24.1 km/h 92 % 0.0 mm
05:47 8.0 °C 6.8 °C 1021.9 hPa NNW 12.9 km/h 24.1 km/h 92 % 0.0 mm
05:52 7.9 °C 6.7 °C 1021.9 hPa NNW 11.3 km/h 24.1 km/h 92 % 0.0 mm
05:57 7.9 °C 6.5 °C 1021.9 hPa WNW 4.8 km/h 24.1 km/h 91 % 0.0 mm
06:02 7.8 °C 6.4 °C 1021.9 hPa NNW 6.4 km/h 24.1 km/h 91 % 0.0 mm
06:07 7.8 °C 6.4 °C 1021.9 hPa NNW 9.7 km/h 25.7 km/h 91 % 0.0 mm
06:12 7.8 °C 6.6 °C 1021.9 hPa NW 8.0 km/h 25.7 km/h 92 % 0.0 mm
06:17 7.7 °C 6.5 °C 1022.2 hPa NNW 11.3 km/h 25.7 km/h 92 % 0.0 mm
06:22 7.7 °C 6.3 °C 1022.2 hPa NNE 12.9 km/h 19.3 km/h 91 % 0.0 mm
06:32 7.6 °C 6.2 °C 1022.2 hPa NNW 9.7 km/h 19.3 km/h 91 % 0.0 mm
06:37 7.5 °C 6.1 °C 1022.2 hPa NNW 4.8 km/h 19.3 km/h 91 % 0.0 mm
06:42 7.4 °C 6.2 °C 1022.6 hPa North 3.2 km/h 16.1 km/h 92 % 0.0 mm
06:47 7.3 °C 6.1 °C 1022.6 hPa North 6.4 km/h 16.1 km/h 92 % 0.0 mm
06:52 7.3 °C 6.1 °C 1022.6 hPa NNW 4.8 km/h 9.7 km/h 92 % 0.0 mm
06:57 7.2 °C 6.0 °C 1022.6 hPa NNW 3.2 km/h 9.7 km/h 92 % 0.0 mm
07:02 7.1 °C 5.9 °C 1022.9 hPa NNW 3.2 km/h 9.7 km/h 92 % 0.0 mm
07:12 6.9 °C 5.8 °C 1023.2 hPa NNE 3.2 km/h 6.4 km/h 93 % 0.0 mm
07:17 6.9 °C 5.8 °C 1023.2 hPa NNW 1.6 km/h 6.4 km/h 93 % 0.0 mm
07:22 6.8 °C 5.7 °C 1023.2 hPa North 3.2 km/h 6.4 km/h 93 % 0.0 mm
07:32 6.8 °C 5.7 °C 1023.2 hPa Calm   6.4 km/h 93 % 0.0 mm
07:42 6.9 °C 5.8 °C 1023.2 hPa NE 3.2 km/h 6.4 km/h 93 % 0.0 mm
07:52 7.0 °C 5.9 °C 1023.6 hPa Calm   9.7 km/h 93 % 0.0 mm
07:57 7.0 °C 5.8 °C 1023.6 hPa Calm   8.0 km/h 92 % 0.0 mm
08:02 6.9 °C 5.7 °C 1023.9 hPa Calm   8.0 km/h 92 % 0.0 mm
08:07 6.8 °C 5.6 °C 1023.9 hPa Calm   3.2 km/h 92 % 0.0 mm
08:12 6.9 °C 5.8 °C 1023.9 hPa Calm   3.2 km/h 93 % 0.0 mm
08:17 7.0 °C 5.9 °C 1023.9 hPa WNW 1.6 km/h 3.2 km/h 93 % 0.0 mm
08:22 7.1 °C 6.0 °C 1023.9 hPa NW 1.6 km/h 3.2 km/h 93 % 0.0 mm
08:32 7.6 °C 6.4 °C 1024.3 hPa Calm   3.2 km/h 92 % 0.0 mm
08:42 7.8 °C 6.4 °C 1024.3 hPa NW 1.6 km/h 3.2 km/h 91 % 0.0 mm
08:52 8.0 °C 6.5 °C 1024.6 hPa North 1.6 km/h 8.0 km/h 90 % 0.0 mm
09:02 8.3 °C 6.6 °C 1024.6 hPa West 1.6 km/h 8.0 km/h 89 % 0.0 mm
09:12 8.4 °C 6.7 °C 1024.9 hPa NW 3.2 km/h 8.0 km/h 89 % 0.0 mm
09:17 8.4 °C 6.5 °C 1024.9 hPa NW 4.8 km/h 8.0 km/h 88 % 0.0 mm
09:22 8.5 °C 6.6 °C 1024.9 hPa NW 3.2 km/h 8.0 km/h 88 % 0.0 mm
09:32 8.6 °C 6.7 °C 1024.9 hPa NNW 3.2 km/h 8.0 km/h 88 % 0.0 mm
09:42 8.8 °C 6.8 °C 1025.3 hPa NW 4.8 km/h 9.7 km/h 87 % 0.0 mm
09:47 9.1 °C 7.1 °C 1025.3 hPa NNW 3.2 km/h 9.7 km/h 87 % 0.0 mm
09:52 9.2 °C 7.0 °C 1025.3 hPa Calm   9.7 km/h 86 % 0.0 mm
09:57 9.4 °C 7.2 °C 1025.3 hPa WNW 1.6 km/h 9.7 km/h 86 % 0.0 mm
10:02 9.5 °C 7.1 °C 1025.3 hPa NW 3.2 km/h 8.0 km/h 85 % 0.0 mm
10:12 9.6 °C 7.2 °C 1025.6 hPa NW 6.4 km/h 11.3 km/h 85 % 0.0 mm
10:17 9.6 °C 7.2 °C 1025.6 hPa NW 4.8 km/h 14.5 km/h 85 % 0.0 mm
10:22 9.6 °C 7.0 °C 1026.0 hPa NNW 6.4 km/h 14.5 km/h 84 % 0.0 mm
10:27 9.6 °C 7.0 °C 1026.0 hPa NW 3.2 km/h 14.5 km/h 84 % 0.0 mm
10:32 9.6 °C 7.0 °C 1026.0 hPa NW 4.8 km/h 12.9 km/h 84 % 0.0 mm
10:37 9.6 °C 7.2 °C 1026.0 hPa NW 9.7 km/h 12.9 km/h 85 % 0.0 mm
10:42 9.8 °C 7.4 °C 1026.0 hPa NW 6.4 km/h 14.5 km/h 85 % 0.0 mm
10:47 10.1 °C 7.3 °C 1026.0 hPa NNW 8.0 km/h 14.5 km/h 83 % 0.0 mm
10:52 10.2 °C 7.3 °C 1026.0 hPa WNW 6.4 km/h 14.5 km/h 82 % 0.0 mm
11:02 10.7 °C 7.9 °C 1026.3 hPa NNW 9.7 km/h 12.9 km/h 83 % 0.0 mm
11:12 11.2 °C 8.1 °C 1026.3 hPa Calm   11.3 km/h 81 % 0.0 mm
11:22 11.7 °C 8.2 °C 1026.3 hPa NNE 3.2 km/h 11.3 km/h 79 % 0.0 mm
11:32 11.7 °C 8.0 °C 1026.6 hPa NNW 9.7 km/h 14.5 km/h 78 % 0.0 mm
11:37 11.8 °C 7.9 °C 1026.6 hPa NW 12.9 km/h 14.5 km/h 77 % 0.0 mm
11:42 11.9 °C 8.2 °C 1026.6 hPa ENE 4.8 km/h 12.9 km/h 78 % 0.0 mm
11:47 12.1 °C 7.8 °C 1026.6 hPa NW 6.4 km/h 14.5 km/h 75 % 0.0 mm
11:57 12.5 °C 8.2 °C 1027.0 hPa North 11.3 km/h 16.1 km/h 75 % 0.0 mm
12:02 12.6 °C 8.1 °C 1027.0 hPa NW 12.9 km/h 16.1 km/h 74 % 0.0 mm
12:12 12.8 °C 7.9 °C 1027.0 hPa NNW 4.8 km/h 19.3 km/h 72 % 0.0 mm
12:17 13.1 °C 8.8 °C 1027.0 hPa NW 6.4 km/h 19.3 km/h 75 % 0.0 mm
12:22 13.1 °C 8.4 °C 1027.3 hPa NNE 9.7 km/h 19.3 km/h 73 % 0.0 mm
12:32 13.3 °C 8.6 °C 1027.3 hPa North 8.0 km/h 20.9 km/h 73 % 0.0 mm
12:42 13.3 °C 7.9 °C 1027.3 hPa NNW 8.0 km/h 19.3 km/h 70 % 0.0 mm
12:52 13.4 °C 8.0 °C 1027.3 hPa NNW 20.9 km/h 25.7 km/h 70 % 0.0 mm
12:57 13.5 °C 7.9 °C 1027.3 hPa NNW 14.5 km/h 25.7 km/h 69 % 0.0 mm
13:02 13.6 °C 8.0 °C 1027.3 hPa North 12.9 km/h 25.7 km/h 69 % 0.0 mm
13:12 13.8 °C 7.6 °C 1027.0 hPa North 9.7 km/h 25.7 km/h 66 % 0.0 mm
13:17 14.1 °C 7.8 °C 1027.0 hPa NW 8.0 km/h 25.7 km/h 66 % 0.0 mm
13:22 14.0 °C 7.5 °C 1027.3 hPa NNE 17.7 km/h 25.7 km/h 65 % 0.0 mm
13:27 14.0 °C 7.7 °C 1027.3 hPa NNW 4.8 km/h 25.7 km/h 66 % 0.0 mm
13:32 14.2 °C 7.5 °C 1027.3 hPa NE 12.9 km/h 25.7 km/h 64 % 0.0 mm
13:37 14.2 °C 7.9 °C 1027.0 hPa NNW 9.7 km/h 25.7 km/h 66 % 0.0 mm
13:42 14.2 °C 7.7 °C 1027.0 hPa WNW 9.7 km/h 25.7 km/h 65 % 0.0 mm
13:47 14.3 °C 7.6 °C 1027.0 hPa NNE 8.0 km/h 27.4 km/h 64 % 0.0 mm
13:52 14.4 °C 7.9 °C 1027.3 hPa NNW 16.1 km/h 27.4 km/h 65 % 0.0 mm
13:57 14.4 °C 7.7 °C 1027.0 hPa NE 9.7 km/h 27.4 km/h 64 % 0.0 mm
14:02 14.5 °C 7.5 °C 1027.3 hPa NNE 9.7 km/h 24.1 km/h 63 % 0.0 mm
14:12 14.7 °C 8.2 °C 1027.3 hPa North 17.7 km/h 20.9 km/h 65 % 0.0 mm
14:17 14.7 °C 8.0 °C 1027.3 hPa North 19.3 km/h 20.9 km/h 64 % 0.0 mm
14:22 14.8 °C 7.8 °C 1027.3 hPa NNW 9.7 km/h 25.7 km/h 63 % 0.0 mm
14:27 14.8 °C 7.4 °C 1027.3 hPa NE 4.8 km/h 25.7 km/h 61 % 0.0 mm
14:32 14.7 °C 7.0 °C 1027.3 hPa NNW 12.9 km/h 25.7 km/h 60 % 0.0 mm
14:42 14.8 °C 7.4 °C 1027.7 hPa WNW 12.9 km/h 32.2 km/h 61 % 0.0 mm
14:52 14.8 °C 6.9 °C 1027.7 hPa North 11.3 km/h 32.2 km/h 59 % 0.0 mm
14:57 14.8 °C 7.6 °C 1027.7 hPa NNW 17.7 km/h 29.0 km/h 62 % 0.0 mm
15:02 14.9 °C 7.9 °C 1027.7 hPa NNE 11.3 km/h 29.0 km/h 63 % 0.0 mm
15:12 15.1 °C 7.6 °C 1027.7 hPa NNW 16.1 km/h 29.0 km/h 61 % 0.0 mm
15:22 14.9 °C 7.0 °C 1027.7 hPa NNW 12.9 km/h 29.0 km/h 59 % 0.0 mm
15:32 15.0 °C 6.8 °C 1027.7 hPa NNW 9.7 km/h 29.0 km/h 58 % 0.0 mm
15:42 15.2 °C 7.7 °C 1027.7 hPa NNW 11.3 km/h 24.1 km/h 61 % 0.0 mm
15:47 15.2 °C 6.7 °C 1027.7 hPa North 17.7 km/h 20.9 km/h 57 % 0.0 mm
15:52 15.2 °C 7.0 °C 1028.0 hPa NNW 11.3 km/h 22.5 km/h 58 % 0.0 mm
15:57 15.2 °C 7.2 °C 1028.0 hPa NNW 8.0 km/h 24.1 km/h 59 % 0.0 mm
16:02 15.1 °C 6.4 °C 1028.0 hPa NNW 12.9 km/h 24.1 km/h 56 % 0.0 mm
16:07 15.2 °C 6.7 °C 1028.0 hPa North 16.1 km/h 24.1 km/h 57 % 0.0 mm
16:12 15.2 °C 6.5 °C 1028.0 hPa WNW 12.9 km/h 24.1 km/h 56 % 0.0 mm
16:17 15.3 °C 7.1 °C 1028.0 hPa North 11.3 km/h 24.1 km/h 58 % 0.0 mm
16:22 15.4 °C 7.4 °C 1028.0 hPa NNE 9.7 km/h 24.1 km/h 59 % 0.0 mm
16:32 15.3 °C 6.8 °C 1028.3 hPa NNW 6.4 km/h 22.5 km/h 57 % 0.0 mm
16:42 15.3 °C 7.6 °C 1028.3 hPa NNE 9.7 km/h 22.5 km/h 60 % 0.0 mm
16:47 15.2 °C 6.7 °C 1028.3 hPa NNW 11.3 km/h 22.5 km/h 57 % 0.0 mm
16:52 15.2 °C 7.0 °C 1028.3 hPa NNE 12.9 km/h 19.3 km/h 58 % 0.0 mm
16:57 15.2 °C 7.2 °C 1028.3 hPa NNE 11.3 km/h 20.9 km/h 59 % 0.0 mm
17:02 15.2 °C 5.4 °C 1028.7 hPa NNE 12.9 km/h 24.1 km/h 52 % 0.0 mm
17:07 15.2 °C 5.7 °C 1028.7 hPa North 9.7 km/h 24.1 km/h 53 % 0.0 mm
17:12 15.2 °C 5.1 °C 1028.7 hPa NNW 16.1 km/h 24.1 km/h 51 % 0.0 mm
17:17 15.1 °C 5.0 °C 1028.7 hPa NNE 9.7 km/h 25.7 km/h 51 % 0.0 mm
17:22 15.1 °C 5.3 °C 1028.7 hPa North 17.7 km/h 25.7 km/h 52 % 0.0 mm
17:32 15.0 °C 5.2 °C 1028.7 hPa North 9.7 km/h 24.1 km/h 52 % 0.0 mm
17:37 14.9 °C 5.7 °C 1028.7 hPa NNE 4.8 km/h 24.1 km/h 54 % 0.0 mm
17:42 14.8 °C 5.3 °C 1028.7 hPa North 8.0 km/h 20.9 km/h 53 % 0.0 mm
17:47 14.7 °C 5.8 °C 1029.0 hPa North 3.2 km/h 22.5 km/h 55 % 0.0 mm
17:52 14.7 °C 5.2 °C 1029.0 hPa NNE 4.8 km/h 22.5 km/h 53 % 0.0 mm
18:02 14.4 °C 4.9 °C 1029.0 hPa NE 8.0 km/h 20.9 km/h 53 % 0.0 mm
18:07 14.3 °C 5.4 °C 1029.3 hPa NNE 8.0 km/h 25.7 km/h 55 % 0.0 mm
18:12 14.2 °C 5.3 °C 1029.3 hPa NNW 6.4 km/h 25.7 km/h 55 % 0.0 mm
18:17 14.1 °C 5.2 °C 1029.3 hPa NE 6.4 km/h 25.7 km/h 55 % 0.0 mm
18:22 13.9 °C 5.3 °C 1029.3 hPa NNW 9.7 km/h 19.3 km/h 56 % 0.0 mm
18:27 13.8 °C 5.2 °C 1029.3 hPa North 4.8 km/h 16.1 km/h 56 % 0.0 mm
18:32 13.7 °C 5.3 °C 1029.7 hPa NW 1.6 km/h 16.1 km/h 57 % 0.0 mm
18:37 13.6 °C 5.2 °C 1029.7 hPa NNW 8.0 km/h 14.5 km/h 57 % 0.0 mm
18:42 13.4 °C 5.1 °C 1029.7 hPa NNW 6.4 km/h 14.5 km/h 57 % 0.0 mm
18:52 13.2 °C 5.1 °C 1029.7 hPa North 4.8 km/h 14.5 km/h 58 % 0.0 mm
19:02 12.9 °C 4.8 °C 1030.0 hPa North 6.4 km/h 11.3 km/h 58 % 0.0 mm
19:07 12.8 °C 5.0 °C 1030.0 hPa NE 4.8 km/h 12.9 km/h 59 % 0.0 mm
19:17 12.6 °C 5.0 °C 1030.0 hPa North 6.4 km/h 11.3 km/h 60 % 0.0 mm
19:22 12.4 °C 5.1 °C 1030.0 hPa NNW 3.2 km/h 11.3 km/h 61 % 0.0 mm
19:32 12.2 °C 5.1 °C 1030.0 hPa NNE 1.6 km/h 8.0 km/h 62 % 0.0 mm
19:37 12.1 °C 5.0 °C 1030.4 hPa NNE 3.2 km/h 8.0 km/h 62 % 0.0 mm
19:42 12.0 °C 4.9 °C 1030.4 hPa North 1.6 km/h 8.0 km/h 62 % 0.0 mm
19:47 11.9 °C 5.1 °C 1030.4 hPa NNW 3.2 km/h 8.0 km/h 63 % 0.0 mm
19:52 11.8 °C 5.0 °C 1030.4 hPa North 3.2 km/h 8.0 km/h 63 % 0.0 mm
20:02 11.5 °C 4.9 °C 1030.4 hPa NNW 1.6 km/h 8.0 km/h 64 % 0.0 mm
20:07 11.4 °C 5.1 °C 1030.7 hPa NNE 1.6 km/h 6.4 km/h 65 % 0.0 mm
20:12 11.2 °C 5.1 °C 1030.7 hPa North 3.2 km/h 4.8 km/h 66 % 0.0 mm
20:17 11.1 °C 5.2 °C 1030.7 hPa North 3.2 km/h 4.8 km/h 67 % 0.0 mm
20:22 11.0 °C 5.1 °C 1030.7 hPa NNE 3.2 km/h 4.8 km/h 67 % 0.0 mm
20:32 11.1 °C 5.4 °C 1031.0 hPa NNE 6.4 km/h 9.7 km/h 68 % 0.0 mm
20:37 11.1 °C 5.4 °C 1031.0 hPa NNE 6.4 km/h 9.7 km/h 68 % 0.0 mm
20:42 11.1 °C 5.6 °C 1031.0 hPa NNE 8.0 km/h 9.7 km/h 69 % 0.0 mm
20:47 11.1 °C 5.6 °C 1031.0 hPa NNE 1.6 km/h 11.3 km/h 69 % 0.0 mm
20:57 10.9 °C 5.4 °C 1031.0 hPa North 4.8 km/h 11.3 km/h 69 % 0.0 mm
21:02 10.8 °C 5.5 °C 1031.0 hPa NNE 4.8 km/h 9.7 km/h 70 % 0.0 mm
21:07 10.6 °C 5.6 °C 1031.0 hPa North 1.6 km/h 9.7 km/h 71 % 0.0 mm
21:12 10.3 °C 5.5 °C 1031.0 hPa NNW 1.6 km/h 6.4 km/h 72 % 0.0 mm
21:17 10.4 °C 5.4 °C 1031.4 hPa NNW 1.6 km/h 4.8 km/h 71 % 0.0 mm
21:27 10.5 °C 5.3 °C 1031.4 hPa NNW 4.8 km/h 8.0 km/h 70 % 0.0 mm
21:32 10.6 °C 5.1 °C 1031.4 hPa NNW 4.8 km/h 8.0 km/h 69 % 0.0 mm
21:37 10.6 °C 5.1 °C 1031.4 hPa North 8.0 km/h 9.7 km/h 69 % 0.0 mm
21:42 10.5 °C 5.1 °C 1031.7 hPa North 4.8 km/h 12.9 km/h 69 % 0.0 mm
21:47 10.4 °C 5.0 °C 1031.7 hPa NNE 8.0 km/h 12.9 km/h 69 % 0.0 mm
21:52 10.5 °C 5.3 °C 1032.1 hPa NNW 8.0 km/h 16.1 km/h 70 % 0.0 mm
21:57 10.4 °C 5.4 °C 1032.1 hPa NNE 12.9 km/h 16.1 km/h 71 % 0.0 mm
22:02 10.5 °C 5.9 °C 1032.1 hPa NNW 6.4 km/h 16.1 km/h 73 % 0.0 mm
22:07 10.7 °C 6.3 °C 1032.1 hPa NNE 4.8 km/h 16.1 km/h 74 % 0.0 mm
22:12 10.7 °C 6.4 °C 1032.1 hPa North 6.4 km/h 19.3 km/h 75 % 0.0 mm
22:17 10.6 °C 6.5 °C 1032.1 hPa NE 8.0 km/h 19.3 km/h 76 % 0.0 mm
22:22 10.4 °C 6.5 °C 1032.1 hPa North 14.5 km/h 19.3 km/h 77 % 0.0 mm
22:32 10.3 °C 6.8 °C 1032.1 hPa NE 6.4 km/h 20.9 km/h 79 % 0.0 mm
22:37 10.3 °C 6.8 °C 1032.4 hPa NE 9.7 km/h 20.9 km/h 79 % 0.0 mm
22:42 10.2 °C 6.7 °C 1032.4 hPa NNE 12.9 km/h 20.9 km/h 79 % 0.0 mm
22:47 10.2 °C 6.9 °C 1032.1 hPa NNW 9.7 km/h 20.9 km/h 80 % 0.0 mm
22:52 10.1 °C 7.0 °C 1032.4 hPa NE 4.8 km/h 17.7 km/h 81 % 0.0 mm
22:57 10.1 °C 7.2 °C 1032.4 hPa North 1.6 km/h 20.9 km/h 82 % 0.0 mm
23:02 9.9 °C 7.0 °C 1032.4 hPa NNW 4.8 km/h 20.9 km/h 82 % 0.0 mm
23:07 9.8 °C 7.1 °C 1032.4 hPa NW 9.7 km/h 20.9 km/h 83 % 0.0 mm
23:12 9.8 °C 7.1 °C 1032.4 hPa NNE 6.4 km/h 17.7 km/h 83 % 0.0 mm
23:17 9.7 °C 7.1 °C 1032.4 hPa NNE 4.8 km/h 17.7 km/h 84 % 0.0 mm
23:22 9.6 °C 7.0 °C 1032.7 hPa NW 1.6 km/h 17.7 km/h 84 % 0.0 mm
23:27 9.5 °C 7.1 °C 1032.7 hPa NNE 6.4 km/h 17.7 km/h 85 % 0.0 mm
23:32 9.4 °C 7.0 °C 1032.4 hPa NNE 11.3 km/h 17.7 km/h 85 % 0.0 mm
23:37 9.4 °C 7.0 °C 1032.7 hPa NNE 4.8 km/h 17.7 km/h 85 % 0.0 mm
23:42 9.3 °C 6.9 °C 1032.7 hPa NE 1.6 km/h 12.9 km/h 85 % 0.0 mm
23:47 9.1 °C 6.9 °C 1032.7 hPa North 3.2 km/h 12.9 km/h 86 % 0.0 mm
23:52 9.1 °C 6.9 °C 1032.7 hPa NNE 3.2 km/h 14.5 km/h 86 % 0.0 mm
23:57 9.0 °C 6.8 °C 1033.1 hPa NNE 3.2 km/h 14.5 km/h 86 % 0.0 mm
Meteo18
Compliments of Weather Underground - 4 mb

Script developed by  Jim McMurry - jmcmurry@mwt.net Adapted for the template by  Wim van der Kuil - Leuven-Template.eu

You find our weather info also at:

European Weather Network

Weather Underground

Equipment we use:

Weather-station
Davis Vue

Weather-program
Meteohub

Weather-server
Raspberry PI 2 B+

Provider
1 and 1

Davis Vue

Meteohub

Raspberry PI 2 B+

1 and 1